HTZA/ZNZ METAR and TAF weather

Enter ICAO airport designator
Station Type Date Time Source
HTZA METAR 2023/03/28 11:00 UTC NOAA

HTZA 281100Z 17005KT 9999 SCT023 FEW024CB 31/25 Q1008 NOSIG


Station Type Date Time Source
HTZA Decoded METAR 2023/03/28 11:00 UTC NOAA

Zanzibar / Kisauni, Tanzania (HTZA) 06-13S 039-13E 15M
Mar 28, 2023 - 07:00 AM EDT / 2023.03.28 1100 UTC
Wind: from the S (170 degrees) at 6 MPH (5 KT):0
Visibility: greater than 7 mile(s):0
Sky conditions: partly cloudy
Weather: Cumulonimbus clouds observed
Temperature: 87 F (31 C)
Heat index: 97.5 F (36.4 C):1
Dew Point: 77 F (25 C)
Relative Humidity: 70%
Pressure (altimeter): 29.77 in. Hg (1008 hPa)
ob: HTZA 281100Z 17005KT 9999 SCT023 FEW024CB 31/25 Q1008 NOSIG
cycle: 11

Station Type Date Time Source
HTZA TAF 2023/03/28 12:27 UTC NOAA

TAF HTZA 281100Z 2812/2912 10010KT 9999 SCT022 FEW024CB
TEMPO 2812/2820 5000 TSRA BKN016 FEW018CB BKN070
BECMG 2902/2904 24010KT

Example: see airport list